Red Lake, Texas
Current Conditions -  °F | °C
As of 12:15 PM on Thursday 27 Nov 2014 (Local Time) from KPSN Reporting Station
Clear Clear  
Wind Chill: 58°   Ceiling: Unl
Heat Index: 58°   Visibility: 10mi
Dew Point: 24°   Wind: 6mph
Humidity: 27%   Direction: 50°NE
Pressure: 30.49"   Gusts: NA
Location:  31.5818°N, 95.8921°W
Report Text: KPSN 271815Z AUTO 05005KT 10SM CLR 14/M04 A3049 RMK AO2 T01441043
Loading
Personal Weather Stations






























Interactive Weather Map New forecast layout! Learn more

10-Day Weather Forecast

Advertisements
Track Severe Weather on mobile